createdAt,value
2022-09-30T00:04:36.015Z,100.00
2022-09-30T00:09:38.891Z,99.82
2022-09-30T00:14:41.561Z,100.00
2022-09-30T00:19:46.665Z,100.00
2022-09-30T00:24:50.422Z,100.00
2022-09-30T00:29:53.933Z,100.00
2022-09-30T00:34:57.813Z,100.00
2022-09-30T00:40:00.629Z,100.00
2022-09-30T00:45:07.194Z,100.00
2022-09-30T00:50:28.490Z,100.00
2022-09-30T00:55:37.374Z,100.00
2022-09-30T01:00:40.338Z,100.00
2022-09-30T01:05:44.808Z,100.00
2022-09-30T01:10:47.812Z,100.00
2022-09-30T01:16:07.241Z,100.00
2022-09-30T01:21:35.344Z,100.00
2022-09-30T01:26:53.271Z,100.00
2022-09-30T01:32:07.196Z,100.00
2022-09-30T01:37:18.911Z,100.00
2022-09-30T01:42:29.239Z,100.00
2022-09-30T01:47:42.271Z,100.00
2022-09-30T01:52:51.054Z,100.00
2022-09-30T01:57:58.234Z,99.24
2022-09-30T02:03:06.742Z,98.00
2022-09-30T02:08:16.947Z,98.45
2022-09-30T02:13:23.484Z,100.00
2022-09-30T02:18:31.760Z,100.00
2022-09-30T02:23:40.771Z,100.00
2022-09-30T02:28:47.395Z,100.00
2022-09-30T02:33:55.640Z,98.75
2022-09-30T02:39:04.082Z,96.10
2022-09-30T02:44:07.292Z,95.79
2022-09-30T02:49:21.602Z,95.44
2022-09-30T02:54:32.155Z,94.96
2022-09-30T02:59:34.809Z,96.45
2022-09-30T03:04:42.074Z,95.35
2022-09-30T03:09:45.100Z,96.65
2022-09-30T03:15:04.449Z,98.29
2022-09-30T03:20:31.121Z,100.00
2022-09-30T03:25:44.625Z,100.00
2022-09-30T03:30:53.736Z,100.00
2022-09-30T03:36:02.688Z,97.19
2022-09-30T03:41:12.665Z,100.00
2022-09-30T03:46:23.184Z,100.00
2022-09-30T03:51:29.382Z,100.00
2022-09-30T03:56:32.136Z,100.00
2022-09-30T04:01:34.732Z,100.00
2022-09-30T04:06:38.669Z,100.00
2022-09-30T04:11:41.387Z,100.00
2022-09-30T04:16:44.009Z,100.00
2022-09-30T04:21:48.053Z,100.00
2022-09-30T04:26:51.113Z,100.00
2022-09-30T04:31:53.945Z,98.71
2022-09-30T04:36:57.972Z,100.00
2022-09-30T04:42:00.673Z,100.00
2022-09-30T04:47:03.562Z,100.00
2022-09-30T04:52:07.858Z,100.00
2022-09-30T04:57:10.446Z,100.00
2022-09-30T05:02:13.776Z,100.00
2022-09-30T05:07:18.058Z,99.63
2022-09-30T05:12:24.039Z,100.00
2022-09-30T05:17:26.800Z,97.00
2022-09-30T05:22:30.725Z,100.00
2022-09-30T05:27:33.520Z,100.00
2022-09-30T05:32:36.209Z,100.00
2022-09-30T05:37:40.494Z,98.23
2022-09-30T05:42:47.259Z,96.76
2022-09-30T05:47:52.911Z,95.22
2022-09-30T05:52:57.454Z,93.79
2022-09-30T05:57:59.887Z,94.99
2022-09-30T06:03:02.469Z,96.71
2022-09-30T06:08:07.437Z,100.00
2022-09-30T06:13:10.799Z,100.00
2022-09-30T06:18:17.700Z,99.24
2022-09-30T06:23:21.863Z,100.00
2022-09-30T06:28:25.244Z,100.00
2022-09-30T06:33:27.953Z,100.00
2022-09-30T06:38:32.137Z,100.00
2022-09-30T06:43:44.865Z,100.00
2022-09-30T06:49:09.763Z,98.87
2022-09-30T06:54:16.465Z,96.64
2022-09-30T06:59:19.296Z,96.07
2022-09-30T07:04:22.107Z,98.90
2022-09-30T07:09:26.255Z,97.57
2022-09-30T07:14:31.396Z,96.14
2022-09-30T07:19:35.125Z,95.16
2022-09-30T07:24:39.027Z,92.72
2022-09-30T07:30:07.265Z,92.45
2022-09-30T07:35:06.213Z,89.50
2022-09-30T07:40:11.288Z,91.08
2022-09-30T07:45:15.998Z,88.01
2022-09-30T07:50:18.826Z,85.36
2022-09-30T07:55:22.956Z,86.70
2022-09-30T08:05:48.611Z,83.11
2022-09-30T08:10:52.589Z,83.69
2022-09-30T08:15:55.265Z,83.14
2022-09-30T08:20:58.366Z,84.13
2022-09-30T08:26:08.015Z,86.09
2022-09-30T08:31:13.140Z,86.76
2022-09-30T08:36:18.290Z,84.32
2022-09-30T08:41:41.796Z,86.50
2022-09-30T08:46:47.554Z,84.95
2022-09-30T08:51:52.651Z,82.09
2022-09-30T08:56:57.497Z,80.59
2022-09-30T09:02:03.303Z,79.73
2022-09-30T09:07:11.581Z,79.92
2022-09-30T09:12:29.050Z,80.19
2022-09-30T09:17:50.291Z,77.15
2022-09-30T09:23:11.477Z,76.10
2022-09-30T09:28:27.197Z,77.44
2022-09-30T09:33:31.990Z,74.62
2022-09-30T09:38:41.591Z,73.73
2022-09-30T09:43:58.337Z,72.36
2022-09-30T09:49:30.565Z,72.06
2022-09-30T09:54:36.588Z,72.52
2022-09-30T09:59:58.486Z,72.67
2022-09-30T10:05:03.043Z,69.87
2022-09-30T10:10:23.006Z,66.08
2022-09-30T10:15:28.152Z,66.10
2022-09-30T10:20:33.300Z,54.62
2022-09-30T10:25:36.724Z,50.66
2022-09-30T10:30:56.781Z,43.80
2022-09-30T10:36:09.753Z,39.75
2022-09-30T10:41:12.821Z,42.06
2022-09-30T10:46:26.807Z,40.76
2022-09-30T10:51:36.275Z,40.18
2022-09-30T10:56:43.137Z,42.44
2022-09-30T11:01:53.748Z,40.93
2022-09-30T11:07:02.988Z,37.24
2022-09-30T11:12:16.180Z,39.05
2022-09-30T11:17:41.126Z,36.96
2022-09-30T11:22:53.738Z,36.27
2022-09-30T11:28:14.920Z,39.56
2022-09-30T11:33:32.278Z,37.39
2022-09-30T11:38:54.625Z,38.88
2022-09-30T11:44:09.112Z,42.12
2022-09-30T11:49:39.091Z,43.05
2022-09-30T11:54:55.103Z,37.82
2022-09-30T12:00:02.468Z,34.65
2022-09-30T12:05:12.892Z,34.63
2022-09-30T12:10:22.100Z,31.54
2022-09-30T12:15:26.962Z,31.54
2022-09-30T12:20:35.179Z,31.85
2022-09-30T12:25:42.999Z,39.75
2022-09-30T12:30:47.826Z,31.79
2022-09-30T12:36:07.315Z,33.15
2022-09-30T12:41:40.873Z,39.32
2022-09-30T12:46:59.276Z,34.15
2022-09-30T12:52:08.165Z,31.54
2022-09-30T12:57:11.574Z,32.62
2022-09-30T13:02:31.731Z,35.51
2022-09-30T13:07:36.199Z,34.34
2022-09-30T13:12:44.112Z,32.19
2022-09-30T13:17:47.000Z,28.67
2022-09-30T13:23:01.515Z,29.44
2022-09-30T13:28:30.685Z,31.61
2022-09-30T13:33:46.263Z,32.11
2022-09-30T13:39:07.959Z,33.69
2022-09-30T13:44:16.448Z,29.79
2022-09-30T13:49:24.845Z,31.90
2022-09-30T13:54:33.986Z,30.62
2022-09-30T13:59:49.182Z,32.18
2022-09-30T14:05:06.475Z,32.40
2022-09-30T14:10:23.535Z,31.60
2022-09-30T14:15:48.247Z,31.41
2022-09-30T14:21:06.438Z,30.96
2022-09-30T14:26:26.010Z,29.80
2022-09-30T14:31:32.259Z,29.67
2022-09-30T14:36:35.622Z,31.27
2022-09-30T14:41:41.132Z,31.53
2022-09-30T14:46:46.682Z,34.85
2022-09-30T14:51:50.133Z,34.83
2022-09-30T14:56:54.531Z,37.39
2022-09-30T15:02:00.591Z,42.46
2022-09-30T15:07:07.203Z,46.43
2022-09-30T15:12:16.072Z,47.14
2022-09-30T15:17:20.367Z,51.27
2022-09-30T15:22:24.799Z,50.14
2022-09-30T15:27:31.577Z,54.57
2022-09-30T15:32:36.579Z,55.09
2022-09-30T15:37:39.744Z,57.29
2022-09-30T15:42:53.919Z,54.51
2022-09-30T15:47:59.171Z,53.51
2022-09-30T15:53:06.140Z,60.67
2022-09-30T15:58:37.868Z,63.30
2022-09-30T16:03:47.487Z,61.34
2022-09-30T16:08:54.953Z,61.52
2022-09-30T16:14:00.204Z,64.45
2022-09-30T16:19:04.672Z,67.20
2022-09-30T16:24:43.889Z,70.25
2022-09-30T16:29:48.241Z,75.40
2022-09-30T16:34:50.964Z,76.43
2022-09-30T16:39:56.611Z,75.80
2022-09-30T16:45:01.883Z,75.07
2022-09-30T16:50:16.624Z,84.45
2022-09-30T16:55:19.565Z,82.30
2022-09-30T17:00:23.755Z,85.32
2022-09-30T17:05:27.542Z,83.97
2022-09-30T17:10:33.334Z,88.80
2022-09-30T17:15:37.689Z,83.55
2022-09-30T17:20:45.172Z,93.82
2022-09-30T17:25:48.414Z,97.46
2022-09-30T17:30:52.446Z,99.35
2022-09-30T17:36:00.425Z,99.55
2022-09-30T17:41:21.320Z,98.93
2022-09-30T17:46:25.579Z,99.65
2022-09-30T17:51:28.362Z,100.00
2022-09-30T17:56:32.088Z,100.00
2022-09-30T18:01:41.400Z,100.00
2022-09-30T18:06:44.112Z,100.00
2022-09-30T18:11:46.998Z,100.00
2022-09-30T18:16:51.070Z,100.00
2022-09-30T18:21:54.023Z,100.00
2022-09-30T18:26:56.704Z,100.00
2022-09-30T18:32:01.110Z,100.00
2022-09-30T18:37:06.485Z,100.00
2022-09-30T18:42:09.394Z,95.68
2022-09-30T18:47:16.206Z,91.78
2022-09-30T18:52:18.947Z,89.32
2022-09-30T18:57:21.610Z,95.77
2022-09-30T19:02:27.191Z,98.92
2022-09-30T19:07:29.988Z,100.00
2022-09-30T19:12:35.827Z,100.00
2022-09-30T19:17:40.009Z,99.48
2022-09-30T19:22:43.451Z,100.00
2022-09-30T19:27:46.667Z,100.00
2022-09-30T19:32:56.500Z,100.00
2022-09-30T19:38:03.074Z,100.00
2022-09-30T19:43:08.095Z,100.00
2022-09-30T19:48:12.059Z,100.00
2022-09-30T19:53:27.383Z,100.00
2022-09-30T19:58:33.426Z,100.00
2022-09-30T20:03:37.417Z,98.48
2022-09-30T20:08:40.522Z,95.82
2022-09-30T20:13:43.508Z,98.19
2022-09-30T20:18:47.448Z,100.00
2022-09-30T20:23:50.540Z,100.00
2022-09-30T20:29:00.967Z,100.00
2022-09-30T20:34:06.017Z,100.00
2022-09-30T20:39:09.129Z,100.00
2022-09-30T20:44:13.077Z,100.00
2022-09-30T20:49:17.106Z,96.42
2022-09-30T20:54:19.747Z,93.67
2022-09-30T20:59:23.136Z,91.72
2022-09-30T21:04:27.070Z,92.91
2022-09-30T21:09:30.619Z,92.06
2022-09-30T21:14:33.235Z,93.04
2022-09-30T21:19:40.320Z,92.19
2022-09-30T21:24:43.104Z,93.72
2022-09-30T21:29:45.730Z,96.99
2022-09-30T21:34:49.697Z,98.10
2022-09-30T21:39:52.351Z,93.73
2022-09-30T21:44:55.542Z,99.83
2022-09-30T21:50:06.424Z,100.00
2022-09-30T21:55:11.717Z,100.00
2022-09-30T22:00:14.646Z,100.00
2022-09-30T22:05:20.712Z,100.00
2022-09-30T22:10:23.307Z,100.00
2022-09-30T22:15:26.023Z,100.00
2022-09-30T22:20:30.450Z,100.00
2022-09-30T22:25:33.288Z,100.00
2022-09-30T22:30:36.071Z,100.00
2022-09-30T22:35:59.816Z,100.00
2022-09-30T22:41:02.895Z,100.00
2022-09-30T22:46:07.924Z,100.00
2022-09-30T22:51:16.885Z,99.76
2022-09-30T22:56:20.084Z,100.00
2022-09-30T23:01:23.073Z,100.00
2022-09-30T23:06:27.121Z,97.38
2022-09-30T23:11:29.932Z,94.53
2022-09-30T23:16:32.835Z,94.11
2022-09-30T23:21:37.411Z,92.34
2022-09-30T23:26:40.261Z,92.02
2022-09-30T23:31:43.155Z,92.04
2022-09-30T23:36:47.406Z,92.51
2022-09-30T23:41:50.776Z,91.80
2022-09-30T23:47:11.099Z,94.23
2022-09-30T23:52:16.094Z,93.18
2022-09-30T23:57:18.666Z,92.92
